Time;durP1;ratioP1;P1;durP2;ratioP2;P2;SDS_P1;SDS_P2;PMS_P1;PMS_P2;Temp;Humidity;BMP_temperature;BMP_pressure;BME280_temperature;BME280_humidity;BME280_pressure;Samples;Min_cycle;Max_cycle;Signal;HPM_P1;HPM_P2
2021/01/10 00:01:15;;;;;;;12.93;9.90;;;;;;;12.29;40.93;102513.22;5017612;28;20035;-77
2021/01/10 00:03:41;;;;;;;18.97;9.97;;;;;;;12.44;40.76;102506.84;5017521;28;20037;-86
2021/01/10 00:06:08;;;;;;;13.95;9.48;;;;;;;12.60;40.15;102502.09;5017344;28;20512;-88
2021/01/10 00:08:34;;;;;;;15.98;10.05;;;;;;;12.52;40.37;102498.00;5017356;28;20030;-89
2021/01/10 00:11:00;;;;;;;13.20;9.35;;;;;;;12.61;40.23;102495.50;5017414;28;20025;-90
2021/01/10 00:13:25;;;;;;;14.13;10.02;;;;;;;12.25;41.09;102495.72;5034921;28;20025;-89
2021/01/10 00:15:51;;;;;;;13.30;9.93;;;;;;;12.44;40.49;102501.34;5016308;28;20044;-83
2021/01/10 00:18:16;;;;;;;12.35;8.52;;;;;;;12.16;40.99;102500.13;5034634;28;20057;-88
2021/01/10 00:20:42;;;;;;;15.35;9.57;;;;;;;12.25;40.97;102503.13;5017453;28;20036;-87
2021/01/10 00:23:09;;;;;;;13.98;8.63;;;;;;;12.43;40.40;102500.53;5017351;28;20067;-89
2021/01/10 00:25:35;;;;;;;15.15;9.05;;;;;;;12.22;40.92;102508.03;5017262;28;20036;-89
2021/01/10 00:28:00;;;;;;;17.38;9.52;;;;;;;12.18;41.25;102492.44;5034636;28;20041;-88
2021/01/10 00:30:26;;;;;;;16.90;10.05;;;;;;;12.40;40.68;102500.28;5013351;28;20046;-89
2021/01/10 00:32:54;;;;;;;13.93;9.27;;;;;;;12.30;40.42;102500.31;5013476;28;20392;-78
2021/01/10 00:35:21;;;;;;;16.08;10.32;;;;;;;12.28;41.03;102494.31;5013626;28;20022;-78
2021/01/10 00:37:48;;;;;;;15.73;10.73;;;;;;;12.43;40.67;102495.06;5014571;28;20503;-77
2021/01/10 00:40:15;;;;;;;15.43;10.18;;;;;;;12.49;40.57;102493.94;5014465;28;20026;-89
2021/01/10 00:42:45;;;;;;;15.52;11.02;;;;;;;12.35;41.02;102498.38;5013518;28;20030;-89
2021/01/10 00:45:12;;;;;;;14.65;10.85;;;;;;;12.55;40.10;102497.47;5013282;28;20088;-78
2021/01/10 00:47:38;;;;;;;14.18;10.05;;;;;;;12.46;40.78;102499.13;5013363;28;20066;-89
2021/01/10 00:50:06;;;;;;;15.23;10.98;;;;;;;12.42;40.62;102496.16;5013372;28;20030;-87
2021/01/10 00:52:32;;;;;;;14.73;10.40;;;;;;;12.48;40.61;102491.47;5014172;28;20030;-88
2021/01/10 00:54:57;;;;;;;14.63;10.30;;;;;;;12.44;40.79;102487.66;5014630;28;20044;-88
2021/01/10 00:57:23;;;;;;;14.77;9.82;;;;;;;12.40;40.95;102492.06;5013371;28;20485;-88
2021/01/10 00:59:48;;;;;;;16.65;9.43;;;;;;;12.39;40.87;102476.69;5012861;28;20025;-89
2021/01/10 01:02:15;;;;;;;13.15;10.18;;;;;;;12.42;40.93;102482.44;5014172;28;20025;-90
2021/01/10 01:04:40;;;;;;;15.02;8.80;;;;;;;12.08;41.78;102481.50;5013208;28;20030;-78
2021/01/10 01:07:06;;;;;;;14.40;10.17;;;;;;;12.08;41.82;102474.13;5014280;28;20030;-81
2021/01/10 01:09:32;;;;;;;14.38;9.73;;;;;;;12.04;42.05;102474.97;5013006;28;20054;-77
2021/01/10 01:12:03;;;;;;;16.30;11.73;;;;;;;11.65;43.31;102478.38;5012989;28;20061;-89
2021/01/10 01:14:29;;;;;;;17.73;10.07;;;;;;;11.92;42.88;102472.53;5014406;28;20025;-88
2021/01/10 01:16:55;;;;;;;14.60;10.05;;;;;;;11.85;42.99;102472.03;5014068;28;20080;-78
2021/01/10 01:19:21;;;;;;;14.85;10.02;;;;;;;11.58;43.63;102477.84;5012806;28;20109;-78
2021/01/10 01:21:51;;;;;;;14.85;10.65;;;;;;;12.04;42.69;102481.28;5014148;28;20109;-79
2021/01/10 01:24:19;;;;;;;14.48;9.80;;;;;;;12.28;42.10;102477.88;5013994;28;20052;-85
2021/01/10 01:26:45;;;;;;;12.83;10.37;;;;;;;12.19;41.98;102478.47;5014044;28;20038;-88
2021/01/10 01:29:11;;;;;;;17.08;11.02;;;;;;;12.10;42.70;102476.59;5016119;28;20041;-83
2021/01/10 01:31:36;;;;;;;15.80;10.38;;;;;;;12.13;42.68;102468.63;5033691;28;20037;-89
2021/01/10 01:34:02;;;;;;;14.80;11.03;;;;;;;12.14;42.75;102469.44;5033607;28;20112;-78
2021/01/10 01:36:28;;;;;;;15.07;10.33;;;;;;;12.02;43.20;102472.53;5015850;28;20036;-89
2021/01/10 01:38:55;;;;;;;15.73;9.90;;;;;;;11.92;43.60;102469.81;5033477;28;20068;-88
2021/01/10 01:41:21;;;;;;;15.00;10.67;;;;;;;12.07;43.07;102472.47;5016017;28;20033;-85
2021/01/10 01:43:47;;;;;;;16.40;10.88;;;;;;;11.87;43.78;102476.16;5015690;28;20122;-89
2021/01/10 01:46:34;;;;;;;14.73;10.80;;;;;;;11.53;44.68;102481.41;5033663;28;20029;-90
2021/01/10 01:49:07;;;;;;;16.37;10.87;;;;;;;11.63;44.24;102486.84;5033520;28;20030;-89
2021/01/10 01:51:34;;;;;;;19.40;11.88;;;;;;;12.06;43.34;102473.59;5016044;28;20037;-88
2021/01/10 01:54:00;;;;;;;15.27;11.27;;;;;;;11.90;43.68;102472.84;5033635;28;20056;-89
2021/01/10 01:56:26;;;;;;;20.37;9.93;;;;;;;12.09;43.06;102473.03;5033327;28;20472;-90
2021/01/10 01:59:00;;;;;;;16.87;11.37;;;;;;;12.15;43.08;102471.91;5033605;28;20041;-85
2021/01/10 02:01:28;;;;;;;13.97;11.67;;;;;;;12.20;42.91;102474.63;5015754;28;20033;-90
2021/01/10 02:04:01;;;;;;;19.60;10.83;;;;;;;12.18;43.14;102476.00;5033404;28;20151;-89
2021/01/10 02:06:35;;;;;;;18.07;11.03;;;;;;;12.11;43.21;102478.22;5033441;28;20040;-77
2021/01/10 02:09:05;;;;;;;16.40;11.97;;;;;;;12.35;42.44;102478.38;5015696;28;20129;-89
2021/01/10 02:11:33;;;;;;;;;;;;;;;12.18;42.86;102487.78;5033930;28;20025;-83
2021/01/10 02:14:04;;;;;;;17.30;11.90;;;;;;;12.22;42.93;102477.06;5015665;28;20352;-89
2021/01/10 02:16:30;;;;;;;15.57;11.10;;;;;;;12.12;43.43;102480.69;5033307;28;20033;-88
2021/01/10 02:18:58;;;;;;;16.60;12.07;;;;;;;11.85;44.32;102470.09;5015505;28;20029;-89
2021/01/10 02:21:26;;;;;;;19.23;13.32;;;;;;;11.76;44.44;102479.97;5033179;28;20025;-87
2021/01/10 02:23:53;;;;;;;17.67;12.40;;;;;;;11.88;44.42;102476.97;5015786;28;20040;-78
2021/01/10 02:26:19;;;;;;;16.40;12.30;;;;;;;11.86;44.65;102479.13;5033299;28;20029;-77
2021/01/10 02:28:45;;;;;;;19.13;13.33;;;;;;;12.08;43.82;102470.56;5033317;28;20034;-86
2021/01/10 02:31:14;;;;;;;19.88;13.05;;;;;;;12.03;44.05;102482.38;5033086;28;20060;-83
2021/01/10 02:33:53;;;;;;;18.07;12.87;;;;;;;11.64;45.57;102484.94;5015589;28;20116;-88
2021/01/10 02:36:32;;;;;;;17.23;13.20;;;;;;;11.66;45.45;102480.00;5015530;28;20132;-89
2021/01/10 02:39:05;;;;;;;18.88;13.80;;;;;;;11.89;44.98;102475.84;5034815;28;20031;-80
2021/01/10 02:41:42;;;;;;;16.60;12.63;;;;;;;11.29;46.66;102483.91;5019324;28;20239;-89
2021/01/10 02:44:47;;;;;;;19.97;14.50;;;;;;;11.83;45.37;102466.84;5036753;28;20025;-89
2021/01/10 02:47:12;;;;;;;18.27;13.48;;;;;;;11.63;45.92;102470.41;5036509;28;20060;-89
2021/01/10 02:49:38;;;;;;;19.47;14.97;;;;;;;12.04;44.71;102467.56;5018828;28;20120;-91
2021/01/10 02:52:04;;;;;;;17.97;12.83;;;;;;;12.14;44.58;102473.00;5018777;28;20026;-88
2021/01/10 02:54:30;;;;;;;16.98;13.25;;;;;;;12.35;44.00;102464.69;5018459;28;20480;-89
2021/01/10 02:57:09;;;;;;;18.90;13.73;;;;;;;11.96;45.29;102459.94;5036240;28;20036;-89
2021/01/10 02:59:41;;;;;;;21.67;14.40;;;;;;;12.27;44.29;102473.50;5036409;28;20104;-89
2021/01/10 03:02:10;;;;;;;18.60;13.00;;;;;;;12.11;45.33;102470.84;5018794;28;20083;-77
2021/01/10 03:04:36;;;;;;;19.43;14.33;;;;;;;12.40;44.29;102472.88;5036264;28;20044;-87
2021/01/10 03:07:07;;;;;;;19.67;13.97;;;;;;;12.33;44.47;102473.19;5018558;28;20510;-83
2021/01/10 03:09:33;;;;;;;18.63;12.97;;;;;;;12.02;45.54;102467.03;5018561;28;20108;-78
2021/01/10 03:12:24;;;;;;;18.38;12.95;;;;;;;12.12;45.21;102472.47;5036010;28;20060;-89
2021/01/10 03:14:50;;;;;;;21.77;14.30;;;;;;;12.44;44.29;102469.28;5036394;28;20022;-87
2021/01/10 03:17:34;;;;;;;14.93;11.82;;;;;;;12.36;44.63;102466.31;5018314;28;20032;-90
2021/01/10 03:19:59;;;;;;;22.53;14.13;;;;;;;12.02;45.81;102467.03;5036159;28;20022;-89
2021/01/10 03:22:27;;;;;;;17.00;12.17;;;;;;;12.33;44.59;102456.75;5017960;28;20033;-88
2021/01/10 03:24:52;;;;;;;20.65;14.30;;;;;;;12.52;44.09;102454.16;5035618;28;20041;-89
2021/01/10 03:27:18;;;;;;;16.03;12.07;;;;;;;12.38;44.29;102448.47;5035834;28;20427;-89
2021/01/10 03:29:44;;;;;;;18.57;13.20;;;;;;;12.29;44.62;102452.09;5035563;28;20041;-88
2021/01/10 03:32:09;;;;;;;17.20;12.80;;;;;;;12.12;44.97;102442.31;5035827;28;20022;-90
2021/01/10 03:34:35;;;;;;;18.10;13.70;;;;;;;12.26;44.74;102450.75;5018261;28;20032;-83
2021/01/10 03:37:00;;;;;;;18.00;12.70;;;;;;;12.08;45.22;102446.72;5035270;28;20107;-84
2021/01/10 03:39:26;;;;;;;17.27;12.48;;;;;;;11.90;45.55;102447.38;5017941;28;20481;-90
2021/01/10 03:41:52;;;;;;;19.20;13.33;;;;;;;11.97;45.50;102449.81;5035290;28;20051;-77
2021/01/10 03:44:18;;;;;;;17.90;13.85;;;;;;;12.09;45.03;102453.88;5034411;28;20025;-90
2021/01/10 03:46:44;;;;;;;17.47;14.23;;;;;;;11.87;45.67;102442.47;5017909;28;20028;-90
2021/01/10 03:49:09;;;;;;;18.83;13.60;;;;;;;11.88;45.75;102452.31;5017646;28;20112;-90
2021/01/10 03:51:35;;;;;;;15.48;13.02;;;;;;;12.03;45.40;102445.94;5017540;28;20036;-90
2021/01/10 03:54:00;;;;;;;16.67;12.43;;;;;;;11.65;46.40;102449.06;5034903;28;20021;-85
2021/01/10 03:56:26;;;;;;;17.50;12.57;;;;;;;11.54;46.81;102441.97;5034559;28;20037;-76
2021/01/10 03:58:52;;;;;;;16.63;12.50;;;;;;;11.77;46.25;102439.69;5034856;28;20037;-88
2021/01/10 04:01:17;;;;;;;17.60;13.33;;;;;;;11.86;46.05;102438.91;5017313;28;20021;-81
2021/01/10 04:03:43;;;;;;;14.67;11.00;;;;;;;11.73;46.49;102444.13;5017356;28;20098;-88
2021/01/10 04:06:08;;;;;;;16.30;12.27;;;;;;;11.74;46.65;102441.09;5034351;28;20056;-89
2021/01/10 04:08:34;;;;;;;18.77;13.18;;;;;;;11.79;46.24;102429.28;5034415;28;20577;-88
2021/01/10 04:10:59;;;;;;;18.30;13.00;;;;;;;11.77;46.48;102436.97;5034865;28;20487;-89
2021/01/10 04:13:25;;;;;;;17.50;12.07;;;;;;;11.96;46.03;102434.47;5017482;28;20369;-90
2021/01/10 04:15:51;;;;;;;17.33;13.10;;;;;;;12.10;45.44;102427.28;5017544;28;20407;-81
2021/01/10 04:18:16;;;;;;;16.83;12.52;;;;;;;11.86;46.27;102432.56;5017020;28;20030;-88
2021/01/10 04:20:42;;;;;;;17.60;12.55;;;;;;;12.24;45.33;102428.28;5035050;28;20033;-85
2021/01/10 04:23:07;;;;;;;18.48;13.68;;;;;;;12.25;45.23;102423.63;5034803;28;20025;-89
2021/01/10 04:25:33;;;;;;;17.10;12.73;;;;;;;12.26;45.61;102419.78;5034462;28;20025;-90
2021/01/10 04:27:59;;;;;;;18.07;12.13;;;;;;;12.43;45.08;102415.56;5017006;28;20057;-81
2021/01/10 04:30:24;;;;;;;17.88;13.52;;;;;;;12.35;45.17;102405.19;5034104;28;20485;-89
2021/01/10 04:32:51;;;;;;;18.33;13.40;;;;;;;12.04;46.24;102415.53;5034489;28;20116;-90
2021/01/10 04:35:17;;;;;;;18.30;13.30;;;;;;;11.94;46.34;102413.66;5034443;28;20148;-81
2021/01/10 04:37:43;;;;;;;18.10;12.55;;;;;;;11.96;46.96;102404.34;5016833;28;20114;-80
2021/01/10 04:40:09;;;;;;;19.43;13.20;;;;;;;12.25;45.93;102401.72;5016626;28;20495;-77
2021/01/10 04:42:34;;;;;;;16.60;12.23;;;;;;;12.17;46.06;102403.94;5034533;28;20407;-89
2021/01/10 04:45:01;;;;;;;19.13;11.55;;;;;;;12.35;45.73;102396.16;5016756;28;20034;-89
2021/01/10 04:47:27;;;;;;;14.60;11.63;;;;;;;12.36;45.68;102401.34;5034112;28;20025;-89
2021/01/10 04:49:53;;;;;;;15.40;9.98;;;;;;;11.99;47.09;102404.56;5033957;28;20025;-88
2021/01/10 04:52:20;;;;;;;17.87;11.13;;;;;;;12.43;45.79;102412.00;5034156;28;20018;-90
2021/01/10 04:54:46;;;;;;;15.80;11.30;;;;;;;11.95;47.15;102409.00;5034115;28;20026;-79
2021/01/10 04:57:13;;;;;;;16.25;12.23;;;;;;;12.29;46.41;102405.50;5034000;28;20543;-78
2021/01/10 04:59:43;;;;;;;15.40;11.27;;;;;;;12.51;46.03;102403.16;5034024;28;20022;-88
2021/01/10 05:02:10;;;;;;;17.67;11.45;;;;;;;12.16;46.78;102401.47;5033529;28;20021;-90
2021/01/10 05:04:36;;;;;;;18.05;11.45;;;;;;;12.55;45.79;102401.50;5016269;28;20040;-90
2021/01/10 05:07:03;;;;;;;14.32;11.18;;;;;;;12.61;45.76;102397.59;5034019;28;20037;-78
2021/01/10 05:09:30;;;;;;;16.77;11.68;;;;;;;12.36;46.62;102400.53;5034036;28;20017;-90
2021/01/10 05:11:56;;;;;;;18.90;12.27;;;;;;;12.36;46.59;102393.13;5033950;28;20056;-89
2021/01/10 05:14:22;;;;;;;18.75;11.95;;;;;;;12.34;46.56;102391.78;5016121;28;20042;-81
2021/01/10 05:16:47;;;;;;;16.77;12.50;;;;;;;12.45;46.38;102391.41;5016068;28;20034;-89
2021/01/10 05:19:18;;;;;;;17.73;10.80;;;;;;;12.17;47.30;102382.03;5033655;28;20041;-77
2021/01/10 05:21:44;;;;;;;21.13;11.38;;;;;;;12.43;46.91;102390.06;5033650;28;20025;-90
2021/01/10 05:24:19;;;;;;;23.40;13.00;;;;;;;12.14;47.76;102393.53;5016319;28;20030;-89
2021/01/10 05:26:45;;;;;;;17.00;11.68;;;;;;;12.12;47.96;102384.78;5016008;28;20030;-91
2021/01/10 05:29:12;;;;;;;17.38;11.52;;;;;;;12.43;47.13;102384.56;5033584;28;20103;-77
2021/01/10 05:31:45;;;;;;;19.17;11.98;;;;;;;12.42;47.25;102374.72;5016114;28;20487;-76
2021/01/10 05:34:15;;;;;;;15.98;11.55;;;;;;;12.54;46.64;102383.38;5033533;28;20029;-85
2021/01/10 05:36:42;;;;;;;16.40;11.27;;;;;;;12.56;46.92;102381.19;5015799;28;20091;-78
2021/01/10 05:39:18;;;;;;;17.42;12.68;;;;;;;12.71;46.59;102369.28;5015743;28;20477;-77
2021/01/10 05:42:01;;;;;;;17.73;11.43;;;;;;;12.66;46.88;102372.88;5034074;28;20036;-90
2021/01/10 05:44:29;;;;;;;17.92;11.55;;;;;;;12.88;46.22;102375.16;5033868;28;20079;-88
2021/01/10 05:47:06;;;;;;;17.58;12.68;;;;;;;12.80;46.77;102372.22;5015969;28;20030;-89
2021/01/10 05:49:32;;;;;;;17.13;12.48;;;;;;;12.93;46.18;102377.84;5033634;28;20037;-77
2021/01/10 05:52:10;;;;;;;16.00;11.70;;;;;;;12.63;47.05;102373.47;5033315;28;20469;-89
2021/01/10 05:54:35;;;;;;;17.30;12.03;;;;;;;12.66;47.16;102381.09;5015335;28;20044;-89
2021/01/10 05:57:06;;;;;;;18.05;11.98;;;;;;;12.77;46.84;102368.94;5015766;28;20033;-77
2021/01/10 05:59:35;;;;;;;18.95;12.00;;;;;;;12.34;47.68;102384.38;5033374;28;20036;-78
2021/01/10 06:02:02;;;;;;;21.23;13.27;;;;;;;12.30;48.19;102379.72;5033397;28;20033;-87
2021/01/10 06:04:29;;;;;;;22.27;13.48;;;;;;;12.87;46.26;102375.44;5033267;28;20507;-76
2021/01/10 06:06:56;;;;;;;18.95;13.35;;;;;;;12.50;47.32;102372.19;5033117;28;20053;-90
2021/01/10 06:09:23;;;;;;;20.20;14.10;;;;;;;12.57;47.11;102371.03;5015512;28;20498;-90
2021/01/10 06:11:48;;;;;;;21.88;13.80;;;;;;;12.85;46.32;102373.00;5033271;28;20021;-91
2021/01/10 06:14:22;;;;;;;20.75;14.20;;;;;;;12.22;48.23;102376.50;5036034;28;20025;-90
2021/01/10 06:16:53;;;;;;;21.90;14.25;;;;;;;12.50;47.18;102374.09;5037081;28;20384;-89
2021/01/10 06:19:25;;;;;;;22.15;13.25;;;;;;;12.62;46.92;102369.09;5037163;28;20025;-89
2021/01/10 06:21:54;;;;;;;19.77;13.43;;;;;;;12.65;47.02;102373.97;5037141;28;20411;-86
2021/01/10 06:24:22;;;;;;;20.50;12.33;;;;;;;12.60;46.82;102379.50;5019762;28;20026;-91
2021/01/10 06:26:53;;;;;;;18.80;11.32;;;;;;;12.55;47.01;102378.75;5036881;28;20262;-89
2021/01/10 06:29:22;;;;;;;18.90;12.20;;;;;;;12.63;46.85;102376.19;5036781;28;20045;-88
2021/01/10 06:31:52;;;;;;;17.20;12.90;;;;;;;12.52;47.48;102371.06;5037184;28;20032;-87
2021/01/10 06:34:20;;;;;;;18.63;12.02;;;;;;;12.63;47.02;102369.91;5019307;28;20476;-90
2021/01/10 06:36:46;;;;;;;16.23;12.10;;;;;;;12.69;47.16;102361.31;5036743;28;20480;-86
2021/01/10 06:39:15;;;;;;;17.05;12.00;;;;;;;12.62;47.10;102362.75;5036805;28;20029;-78
2021/01/10 06:42:05;;;;;;;15.43;11.10;;;;;;;12.58;47.61;102368.00;5019184;28;20037;-85
2021/01/10 06:44:35;;;;;;;17.30;10.82;;;;;;;12.72;46.81;102360.75;5036662;28;20052;-88
2021/01/10 06:47:01;;;;;;;17.92;11.35;;;;;;;12.71;47.11;102370.09;5036592;28;20429;-82
2021/01/10 06:49:27;;;;;;;16.45;11.50;;;;;;;12.89;46.53;102370.47;5036570;28;20056;-86
2021/01/10 06:51:56;;;;;;;15.40;10.32;;;;;;;12.57;46.95;102373.78;5019049;28;20030;-77
2021/01/10 06:54:22;;;;;;;14.95;9.88;;;;;;;12.83;46.58;102380.66;5036617;28;20029;-82
2021/01/10 06:56:48;;;;;;;14.85;11.00;;;;;;;13.01;46.14;102365.44;5018633;28;20515;-89
2021/01/10 07:00:04;;;;;;;13.40;10.63;;;;;;;12.99;46.12;102373.13;5036051;28;20029;-89
2021/01/10 07:02:29;;;;;;;17.27;11.35;;;;;;;13.04;45.92;102368.41;5027380;28;20159;-81
2021/01/10 07:04:56;;;;;;;14.50;11.52;;;;;;;13.01;45.98;102365.44;5035842;28;20538;-90
2021/01/10 07:07:35;;;;;;;14.70;11.17;;;;;;;12.96;45.95;102374.53;5018270;28;20029;-88
2021/01/10 07:10:02;;;;;;;15.98;11.45;;;;;;;13.12;45.65;102383.41;5036229;28;20048;-89
2021/01/10 07:12:27;;;;;;;15.77;11.93;;;;;;;13.06;45.51;102393.63;5018348;28;20030;-91
2021/01/10 07:14:53;;;;;;;18.00;11.70;;;;;;;12.79;45.95;102393.34;5035984;28;20033;-89
2021/01/10 07:17:20;;;;;;;16.95;11.93;;;;;;;12.68;46.33;102395.34;5035710;28;20057;-90
2021/01/10 07:19:51;;;;;;;19.67;12.60;;;;;;;12.63;46.55;102395.41;5018200;28;20055;-90
2021/01/10 07:22:29;;;;;;;17.35;12.32;;;;;;;12.34;47.19;102394.53;5018626;28;20040;-77
2021/01/10 07:24:55;;;;;;;17.10;12.32;;;;;;;12.58;46.58;102398.16;5035505;28;20067;-90
2021/01/10 07:27:28;;;;;;;16.35;11.98;;;;;;;12.32;47.17;102393.97;5035998;28;20064;-90
2021/01/10 07:29:54;;;;;;;17.08;12.75;;;;;;;12.48;46.80;102392.78;5035940;28;20046;-90
2021/01/10 07:32:36;;;;;;;16.60;12.40;;;;;;;12.51;46.58;102397.69;5018255;28;20030;-77
2021/01/10 07:35:05;;;;;;;17.67;12.15;;;;;;;12.29;47.15;102389.88;5018152;28;20025;-85
2021/01/10 07:37:32;;;;;;;17.92;13.95;;;;;;;12.65;46.20;102392.38;5035479;28;20029;-80
2021/01/10 07:40:07;;;;;;;18.80;13.13;;;;;;;12.37;46.73;102396.69;5017684;28;20439;-77
2021/01/10 07:42:35;;;;;;;24.65;12.23;;;;;;;12.36;46.92;102395.84;5017929;28;20507;-90
2021/01/10 07:45:20;;;;;;;18.27;12.82;;;;;;;12.36;46.55;102382.16;5035431;28;20036;-91
2021/01/10 07:47:52;;;;;;;16.83;12.13;;;;;;;12.67;45.88;102393.69;5035320;28;20024;-77
2021/01/10 07:50:18;;;;;;;17.67;12.73;;;;;;;12.63;46.05;102400.06;5017892;28;20087;-87
2021/01/10 07:52:45;;;;;;;18.58;12.50;;;;;;;12.65;46.15;102397.84;5017739;28;20113;-87
2021/01/10 07:55:19;;;;;;;16.85;12.63;;;;;;;12.68;45.84;102386.28;5034666;28;20036;-86
2021/01/10 07:57:49;;;;;;;15.80;12.48;;;;;;;12.66;46.10;102391.25;5034469;28;20025;-77
2021/01/10 08:00:21;;;;;;;16.60;12.63;;;;;;;12.52;46.40;102382.84;5034087;28;20480;-84
2021/01/10 08:02:59;;;;;;;18.05;14.10;;;;;;;12.46;46.50;102378.50;5017607;28;20369;-87
2021/01/10 08:05:32;;;;;;;17.33;11.82;;;;;;;12.70;46.06;102368.47;5034752;28;20025;-77
2021/01/10 08:08:16;;;;;;;21.23;14.33;;;;;;;12.60;46.08;102370.47;5034561;28;20013;-77
2021/01/10 08:10:51;;;;;;;33.85;29.92;;;;;;;12.67;46.10;102377.25;5034393;28;20030;-76
2021/01/10 08:13:29;;;;;;;38.05;25.80;;;;;;;12.48;46.81;102376.31;5034419;28;20025;-84
2021/01/10 08:16:18;;;;;;;17.60;14.60;;;;;;;12.62;46.36;102382.78;5019091;28;20033;-78
2021/01/10 08:18:45;;;;;;;33.60;21.92;;;;;;;12.49;46.79;102384.25;5052308;28;20040;-78
2021/01/10 08:21:13;;;;;;;75.50;48.05;;;;;;;12.63;46.32;102386.34;5035890;28;20029;-77
2021/01/10 08:23:40;;;;;;;26.92;16.67;;;;;;;12.66;46.41;102388.50;5053048;28;20033;-90
2021/01/10 08:26:12;;;;;;;61.00;35.05;;;;;;;12.84;45.82;102386.97;5053086;28;20128;-88
2021/01/10 08:28:46;;;;;;;17.63;12.57;;;;;;;13.00;45.48;102374.78;5034796;28;20079;-87
2021/01/10 08:31:14;;;;;;;73.53;50.38;;;;;;;13.00;45.45;102369.28;5016851;28;20042;-79
2021/01/10 08:33:40;;;;;;;19.92;11.18;;;;;;;12.88;45.72;102374.34;5032438;28;20034;-84
2021/01/10 08:36:14;;;;;;;14.93;10.65;;;;;;;12.63;46.59;102378.94;5031385;28;20026;-80
2021/01/10 08:38:51;;;;;;;14.82;10.48;;;;;;;12.52;46.83;102382.84;5032562;28;20037;-87
2021/01/10 08:41:36;;;;;;;15.43;10.87;;;;;;;12.50;47.01;102379.59;5032472;28;20423;-88
2021/01/10 08:44:04;;;;;;;14.40;10.07;;;;;;;12.84;46.04;102385.03;5014012;28;20041;-74
2021/01/10 08:46:36;;;;;;;12.80;9.93;;;;;;;12.61;46.53;102388.53;5031645;28;20073;-73
2021/01/10 08:49:02;;;;;;;12.38;9.00;;;;;;;12.41;47.47;102392.28;5031290;28;20033;-74
2021/01/10 08:51:35;;;;;;;12.40;8.75;;;;;;;12.09;48.22;102390.84;5031392;28;20361;-73
2021/01/10 08:54:09;;;;;;;14.43;10.02;;;;;;;12.53;47.07;102400.13;5032892;28;20422;-77
2021/01/10 08:56:35;;;;;;;12.20;9.20;;;;;;;12.43;47.65;102401.03;5032996;28;20396;-84
2021/01/10 08:59:01;;;;;;;14.27;9.65;;;;;;;12.72;46.66;102387.38;5032985;28;20463;-74
2021/01/10 09:01:28;;;;;;;15.55;10.05;;;;;;;12.86;46.40;102399.31;5032867;28;20087;-77
2021/01/10 09:04:01;;;;;;;13.55;9.63;;;;;;;12.89;46.45;102411.63;5047862;28;20498;-71
2021/01/10 09:06:54;;;;;;;15.93;11.93;;;;;;;12.70;47.00;102412.34;5052794;28;20033;-73
2021/01/10 09:09:31;;;;;;;13.82;10.05;;;;;;;12.91;46.28;102415.72;5052761;28;20025;-75
2021/01/10 09:12:08;;;;;;;21.20;14.23;;;;;;;13.04;45.92;102411.50;5052856;28;20119;-80
2021/01/10 09:14:46;;;;;;;16.55;11.38;;;;;;;13.09;45.91;102410.63;5052784;28;20033;-73
2021/01/10 09:17:14;;;;;;;56.22;28.45;;;;;;;13.00;46.10;102415.94;5049542;28;20130;-73
2021/01/10 09:19:40;;;;;;;14.05;10.77;;;;;;;13.10;45.83;102421.31;5026824;28;20037;-73
2021/01/10 09:22:07;;;;;;;16.10;11.43;;;;;;;13.17;45.82;102410.00;5029938;28;20034;-77
2021/01/10 09:24:33;;;;;;;92.10;48.28;;;;;;;13.04;46.09;102414.22;5022693;28;20026;-74
2021/01/10 09:27:09;;;;;;;16.33;10.20;;;;;;;13.02;46.27;102424.69;5024359;28;20416;-80
2021/01/10 09:29:35;;;;;;;50.97;22.27;;;;;;;13.23;45.77;102422.59;5038644;28;20045;-73
2021/01/10 09:32:02;;;;;;;19.15;12.45;;;;;;;13.15;46.00;102423.16;5028385;28;20067;-73
2021/01/10 09:34:28;;;;;;;34.03;17.92;;;;;;;13.09;46.34;102421.63;5031479;28;20105;-73
2021/01/10 09:37:07;;;;;;;86.30;42.92;;;;;;;12.92;46.52;102428.34;5031538;28;20145;-74
2021/01/10 09:39:41;;;;;;;26.27;13.98;;;;;;;13.00;46.36;102433.22;5031308;28;20037;-74
2021/01/10 09:42:06;;;;;;;15.88;10.23;;;;;;;12.87;46.86;102433.06;5015781;28;20499;-74
2021/01/10 09:44:32;;;;;;;11.32;8.43;;;;;;;12.96;46.70;102436.81;5015737;28;20033;-77
2021/01/10 09:46:59;;;;;;;12.80;9.55;;;;;;;13.13;46.29;102430.88;5015086;28;20029;-75
2021/01/10 09:49:30;;;;;;;11.68;8.45;;;;;;;13.05;46.70;102435.91;5019505;28;20361;-74
2021/01/10 09:52:01;;;;;;;10.73;7.93;;;;;;;13.11;46.55;102433.94;5019456;28;20025;-75
2021/01/10 09:54:38;;;;;;;10.35;7.72;;;;;;;12.75;47.51;102436.16;5018939;28;20030;-77
2021/01/10 09:57:09;;;;;;;10.73;7.65;;;;;;;12.94;47.23;102436.28;5019097;28;20037;-74
2021/01/10 09:59:40;;;;;;;11.98;7.80;;;;;;;13.18;46.42;102439.91;5019155;28;20029;-74
2021/01/10 10:02:16;;;;;;;10.82;7.45;;;;;;;13.07;46.85;102438.34;5019017;28;20041;-75
2021/01/10 10:04:45;;;;;;;11.10;7.97;;;;;;;12.88;47.52;102429.19;5018289;28;20116;-78
2021/01/10 10:07:13;;;;;;;10.63;7.10;;;;;;;12.88;47.52;102431.94;5015911;28;20035;-72
2021/01/10 10:09:50;;;;;;;10.70;8.00;;;;;;;12.85;47.94;102436.09;5019626;28;20026;-74
2021/01/10 10:12:17;;;;;;;7.63;6.10;;;;;;;13.18;46.92;102436.34;5018107;28;20033;-74
2021/01/10 10:14:59;;;;;;;9.95;7.65;;;;;;;13.21;47.18;102436.59;5016870;28;20399;-72
2021/01/10 10:17:33;;;;;;;10.48;7.05;;;;;;;13.41;46.78;102435.56;5017413;28;21487;-75
2021/01/10 10:20:00;;;;;;;9.93;6.95;;;;;;;13.07;47.69;102427.38;5017958;28;20025;-74
2021/01/10 10:22:30;;;;;;;11.52;7.22;;;;;;;13.19;47.58;102429.75;5016141;28;20037;-74
2021/01/10 10:24:57;;;;;;;9.52;6.85;;;;;;;13.09;47.94;102414.19;5017159;28;20121;-74
2021/01/10 10:27:29;;;;;;;13.55;6.60;;;;;;;13.38;47.17;102416.13;5017497;28;20029;-74
2021/01/10 10:29:55;;;;;;;58.70;30.42;;;;;;;13.46;47.21;102419.06;5016954;28;20959;-74
2021/01/10 10:32:21;;;;;;;8.50;6.45;;;;;;;13.34;47.31;102413.13;5018457;28;20034;-73
2021/01/10 10:34:48;;;;;;;9.18;6.22;;;;;;;13.32;47.28;102421.66;5016690;28;20025;-74
2021/01/10 10:37:14;;;;;;;12.05;8.18;;;;;;;13.55;47.06;102424.72;5015731;28;20463;-74
2021/01/10 10:39:39;;;;;;;8.25;6.28;;;;;;;13.45;47.65;102422.06;5016968;28;20033;-74
2021/01/10 10:42:10;;;;;;;7.78;5.80;;;;;;;13.53;47.08;102426.94;5017007;28;20869;-73
2021/01/10 10:44:35;;;;;;;9.32;6.82;;;;;;;13.40;47.24;102431.19;5017970;28;20029;-73
2021/01/10 10:47:01;;;;;;;12.50;8.37;;;;;;;13.46;47.30;102430.03;5016155;28;20038;-73
2021/01/10 10:49:28;;;;;;;10.38;6.40;;;;;;;13.54;46.99;102423.09;5016701;28;20026;-74
2021/01/10 10:51:54;;;;;;;17.77;16.00;;;;;;;13.68;46.85;102428.69;5017721;28;20029;-77
2021/01/10 10:54:19;;;;;;;15.27;9.27;;;;;;;13.74;46.54;102419.25;5017779;28;20392;-74
2021/01/10 10:56:46;;;;;;;9.50;6.80;;;;;;;13.33;47.53;102423.31;5017397;28;20025;-74
2021/01/10 10:59:12;;;;;;;7.72;5.63;;;;;;;13.83;46.61;102418.34;5015033;28;20040;-74
2021/01/10 11:01:46;;;;;;;9.95;6.22;;;;;;;13.85;46.59;102410.63;5017428;28;20756;-76
2021/01/10 11:04:12;;;;;;;8.80;6.43;;;;;;;13.95;46.36;102406.91;5014677;28;20557;-81
2021/01/10 11:06:38;;;;;;;8.82;6.32;;;;;;;13.94;46.44;102415.47;5014224;28;20026;-75
2021/01/10 11:09:06;;;;;;;8.65;6.25;;;;;;;14.39;45.44;102411.25;5014291;28;20044;-76
2021/01/10 11:11:45;;;;;;;7.05;6.00;;;;;;;13.97;46.38;102406.59;5016734;28;20025;-75
2021/01/10 11:14:12;;;;;;;10.18;6.85;;;;;;;14.08;46.12;102408.13;5024881;28;20044;-75
2021/01/10 11:16:41;;;;;;;8.80;6.20;;;;;;;14.13;46.21;102403.38;5041393;28;20499;-75
2021/01/10 11:19:08;;;;;;;11.77;7.40;;;;;;;14.38;45.27;102402.19;5045651;28;20842;-75
2021/01/10 11:21:37;;;;;;;16.95;10.43;;;;;;;14.45;45.24;102396.31;5038994;28;20415;-74